This is the latest recevied weather packets stored in our database for station/object TA2EE-10. If no packets are shown the sender has not sent any weather packets the latest 10 day(s).
| Time | Temp. | Humidity | Pressure | Rain* | Wind** | Luminosity | Snow |
|---|---|---|---|---|---|---|---|
| 1777840639 | 17.22° C | 43% | 902 hPa | - | - | 0 W/m² | - |
| 1777838517 | 17.22° C | 43% | 902 hPa | - | - | 0 W/m² | - |
| 1777836394 | 16.67° C | 45% | 902 hPa | - | - | 0 W/m² | - |
| 1777834272 | 18.33° C | 42% | 902 hPa | - | - | 0 W/m² | - |
| 1777832150 | 19.44° C | 40% | 902 hPa | - | - | 0 W/m² | - |
| 1777830028 | 19.44° C | 40% | 902 hPa | - | - | 0 W/m² | - |
| 1777827906 | 18.33° C | 41% | 902 hPa | - | - | 0 W/m² | - |
| 1777825784 | 18.33° C | 41% | 902 hPa | - | - | 0 W/m² | - |
| 1777823662 | 19.44° C | 38% | 902 hPa | - | - | 0 W/m² | - |
| 1777823595 | 18.89° C | 38% | 902 hPa | - | - | 0 W/m² | - |
| 1777821473 | 18.89° C | 40% | 902 hPa | - | - | 0 W/m² | - |
| 1777819351 | 20.56° C | 37% | 903 hPa | - | - | 0 W/m² | - |
| 1777817229 | 19.44° C | 39% | 903 hPa | - | - | 0 W/m² | - |
| 1777815107 | 18.89° C | 39% | 904 hPa | - | - | 0 W/m² | - |
| 1777812984 | 20.56° C | 36% | 904 hPa | - | - | 0 W/m² | - |
| 1777810862 | 21.11° C | 35% | 905 hPa | - | - | 0 W/m² | - |
| 1777808740 | 21.11° C | 34% | 905 hPa | - | - | 0 W/m² | - |
| 1777806618 | 22.78° C | 31% | 906 hPa | - | - | 0 W/m² | - |
| 1777804496 | 19.44° C | 38% | 907 hPa | - | - | 0 W/m² | - |
| 1777802374 | 22.78° C | 30% | 907 hPa | - | - | 0 W/m² | - |
| 1777800251 | 22.22° C | 33% | 907 hPa | - | - | 0 W/m² | - |
| 1777798129 | 22.78° C | 33% | 907 hPa | - | - | 0 W/m² | - |
| 1777796007 | 17.22° C | 39% | 908 hPa | - | - | 0 W/m² | - |
| 1777793885 | 18.33° C | 37% | 908 hPa | - | - | 0 W/m² | - |
| 1777791763 | 16.67° C | 40% | 908 hPa | - | - | 0 W/m² | - |
* Rain since midnight (hover to see other rain measurements)
** Current wind speed in m/s (hover to see current wind gust speed)